RJAZ(METAR)
07/27 17:00
RJAZ 270800Z 19007KT CAVOK 26/23 Q0998 RMK A2949=
戻る
トップページへ戻る
IMOC Co,.Ltd.